Time;durP1;ratioP1;P1;durP2;ratioP2;P2;SDS_P1;SDS_P2;PMS_P1;PMS_P2;Temp;Humidity;BMP_temperature;BMP_pressure;BME280_temperature;BME280_humidity;BME280_pressure;Samples;Min_cycle;Max_cycle;Signal;HPM_P1;HPM_P2
2024/01/15 00:02:06;;;;;;;3.83;2.72;;;;;;;;;;4975757;28;20045;-80
2024/01/15 00:04:35;;;;;;;3.17;2.75;;;;;;;;;;4983862;28;20053;-83
2024/01/15 00:07:01;;;;;;;3.00;2.42;;;;;;;;;;4983927;28;20034;-82
2024/01/15 00:09:27;;;;;;;3.15;2.30;;;;;;;;;;4984598;28;20506;-82
2024/01/15 00:11:52;;;;;;;3.88;1.95;;;;;;;;;;4982968;28;20031;-83
2024/01/15 00:14:20;;;;;;;4.13;2.50;;;;;;;;;;4981026;28;20129;-81
2024/01/15 00:16:45;;;;;;;3.15;2.30;;;;;;;;;;4980276;28;20511;-82
2024/01/15 00:19:10;;;;;;;2.65;2.45;;;;;;;;;;4957730;28;20035;-82
2024/01/15 00:21:36;;;;;;;3.45;2.00;;;;;;;;;;4983673;28;20046;-83
2024/01/15 00:24:01;;;;;;;3.70;2.78;;;;;;;;;;4991758;28;20026;-82
2024/01/15 00:26:26;;;;;;;1.65;1.52;;;;;;;;;;4984443;28;20150;-79
2024/01/15 00:28:52;;;;;;;2.53;2.20;;;;;;;;;;4982736;28;20042;-81
2024/01/15 00:31:17;;;;;;;4.72;2.33;;;;;;;;;;4978537;28;20049;-82
2024/01/15 00:33:43;;;;;;;1.45;1.35;;;;;;;;;;4964095;28;20079;-80
2024/01/15 00:36:08;;;;;;;2.67;2.10;;;;;;;;;;4981817;28;20035;-81
2024/01/15 00:38:34;;;;;;;3.38;2.50;;;;;;;;;;4968280;28;20038;-83
2024/01/15 00:40:59;;;;;;;2.33;1.85;;;;;;;;;;4993169;28;20093;-83
2024/01/15 00:43:24;;;;;;;2.92;1.65;;;;;;;;;;4987885;28;20053;-83
2024/01/15 00:45:50;;;;;;;3.08;2.28;;;;;;;;;;4980907;28;20126;-82
2024/01/15 00:48:15;;;;;;;1.98;1.80;;;;;;;;;;4986602;28;20450;-80
2024/01/15 00:50:40;;;;;;;2.50;1.92;;;;;;;;;;4980728;28;20042;-84
2024/01/15 00:53:06;;;;;;;2.25;2.03;;;;;;;;;;4974359;28;20038;-80
2024/01/15 00:55:31;;;;;;;2.60;2.40;;;;;;;;;;4958066;28;20500;-82
2024/01/15 00:57:57;;;;;;;5.60;2.10;;;;;;;;;;4963459;28;20030;-82
2024/01/15 01:00:22;;;;;;;1.73;1.52;;;;;;;;;;4965921;28;20571;-80
2024/01/15 01:02:47;;;;;;;1.50;1.40;;;;;;;;;;4971191;28;20030;-84
2024/01/15 01:05:13;;;;;;;2.10;1.95;;;;;;;;;;4976269;28;20134;-83
2024/01/15 01:07:38;;;;;;;5.38;2.78;;;;;;;;;;4982007;28;20050;-79
2024/01/15 01:10:04;;;;;;;2.65;2.13;;;;;;;;;;4982916;28;20439;-82
2024/01/15 01:12:29;;;;;;;3.50;2.25;;;;;;;;;;4982544;28;20582;-80
2024/01/15 01:14:55;;;;;;;4.97;3.03;;;;;;;;;;4976354;28;20042;-81
2024/01/15 01:17:21;;;;;;;3.03;2.45;;;;;;;;;;4958088;28;20041;-80
2024/01/15 01:19:46;;;;;;;3.22;2.13;;;;;;;;;;4982896;28;20073;-82
2024/01/15 01:22:11;;;;;;;5.55;2.50;;;;;;;;;;4976338;28;20066;-83
2024/01/15 01:24:36;;;;;;;2.88;2.42;;;;;;;;;;4982582;28;20085;-83
2024/01/15 01:27:02;;;;;;;3.50;2.47;;;;;;;;;;4976885;28;21145;-82
2024/01/15 01:29:27;;;;;;;2.65;2.45;;;;;;;;;;4980488;28;20039;-79
2024/01/15 01:31:52;;;;;;;7.15;3.30;;;;;;;;;;4987423;28;20035;-81
2024/01/15 01:34:18;;;;;;;5.47;3.55;;;;;;;;;;4984332;28;20034;-82
2024/01/15 01:36:43;;;;;;;3.47;2.50;;;;;;;;;;4982531;28;20053;-79
2024/01/15 01:39:09;;;;;;;7.13;4.70;;;;;;;;;;4990923;28;20026;-82
2024/01/15 01:41:34;;;;;;;6.40;3.67;;;;;;;;;;4983461;28;20043;-82
2024/01/15 01:44:00;;;;;;;9.27;4.47;;;;;;;;;;4980351;28;20053;-81
2024/01/15 01:46:27;;;;;;;4.40;3.08;;;;;;;;;;4978260;28;20039;-83
2024/01/15 01:48:53;;;;;;;5.00;3.53;;;;;;;;;;4979584;28;20034;-82
2024/01/15 01:51:19;;;;;;;7.72;4.15;;;;;;;;;;4977053;28;20415;-81
2024/01/15 01:53:45;;;;;;;5.07;3.35;;;;;;;;;;4988030;28;20499;-83
2024/01/15 01:56:12;;;;;;;6.82;3.28;;;;;;;;;;4978659;28;20093;-82
2024/01/15 01:58:38;;;;;;;6.10;3.40;;;;;;;;;;4981896;28;20567;-83
2024/01/15 02:01:03;;;;;;;7.13;3.65;;;;;;;;;;4982045;28;20117;-82
2024/01/15 02:03:30;;;;;;;6.35;3.95;;;;;;;;;;4984171;28;20054;-82
2024/01/15 02:05:56;;;;;;;7.43;3.60;;;;;;;;;;4982341;28;20620;-81
2024/01/15 02:08:22;;;;;;;7.80;3.95;;;;;;;;;;4981656;28;20038;-83
2024/01/15 02:10:47;;;;;;;11.02;4.88;;;;;;;;;;4983434;28;20046;-81
2024/01/15 02:13:13;;;;;;;12.07;5.95;;;;;;;;;;4983066;28;20042;-82
2024/01/15 02:15:38;;;;;;;15.38;5.85;;;;;;;;;;4980218;28;20027;-79
2024/01/15 02:18:06;;;;;;;14.40;6.25;;;;;;;;;;4976252;28;20034;-81
2024/01/15 02:20:32;;;;;;;11.70;6.38;;;;;;;;;;4981048;28;20118;-82
2024/01/15 02:23:14;;;;;;;12.63;7.55;;;;;;;;;;4981211;28;20460;-80
2024/01/15 02:25:41;;;;;;;23.10;10.85;;;;;;;;;;4969696;28;20303;-82
2024/01/15 02:28:09;;;;;;;22.95;8.00;;;;;;;;;;4962931;28;20125;-83
2024/01/15 02:30:39;;;;;;;17.02;9.07;;;;;;;;;;4983059;28;20396;-82
2024/01/15 02:33:04;;;;;;;17.67;9.82;;;;;;;;;;4977276;28;20038;-80
2024/01/15 02:35:29;;;;;;;15.95;7.95;;;;;;;;;;4978094;28;20495;-83
2024/01/15 02:37:55;;;;;;;20.30;8.43;;;;;;;;;;4978974;28;20031;-81
2024/01/15 02:40:20;;;;;;;17.80;9.13;;;;;;;;;;4978614;28;20041;-83
2024/01/15 02:42:45;;;;;;;18.63;10.23;;;;;;;;;;4981095;28;20491;-82
2024/01/15 02:45:11;;;;;;;17.95;10.30;;;;;;;;;;4985202;28;20035;-81
2024/01/15 02:47:36;;;;;;;18.00;9.57;;;;;;;;;;4964385;28;20035;-82
2024/01/15 02:50:02;;;;;;;22.48;9.18;;;;;;;;;;4999835;28;20035;-83
2024/01/15 02:52:27;;;;;;;24.67;13.50;;;;;;;;;;4960027;28;20126;-81
2024/01/15 02:54:52;;;;;;;21.63;12.30;;;;;;;;;;4994856;28;20094;-82
2024/01/15 02:57:17;;;;;;;22.45;11.65;;;;;;;;;;4977570;28;20039;-81
2024/01/15 02:59:43;;;;;;;16.38;7.72;;;;;;;;;;4995455;28;20030;-80
2024/01/15 03:02:08;;;;;;;20.63;10.32;;;;;;;;;;4991763;28;20042;-81
2024/01/15 03:04:33;;;;;;;19.13;7.90;;;;;;;;;;4976214;28;20042;-82
2024/01/15 03:06:59;;;;;;;10.45;6.43;;;;;;;;;;4989308;28;20486;-83
2024/01/15 03:09:24;;;;;;;17.45;8.02;;;;;;;;;;4991456;28;20039;-82
2024/01/15 03:11:49;;;;;;;14.40;7.13;;;;;;;;;;4994715;28;20063;-80
2024/01/15 03:14:15;;;;;;;17.50;9.10;;;;;;;;;;4987984;28;20267;-80
2024/01/15 03:16:40;;;;;;;17.88;8.20;;;;;;;;;;4976009;28;20038;-81
2024/01/15 03:19:05;;;;;;;12.40;7.18;;;;;;;;;;4993137;28;20037;-82
2024/01/15 03:21:30;;;;;;;20.00;10.25;;;;;;;;;;4991508;28;20106;-81
2024/01/15 03:23:56;;;;;;;13.63;7.40;;;;;;;;;;4989683;28;20097;-81
2024/01/15 03:26:21;;;;;;;11.95;6.68;;;;;;;;;;4963828;28;20043;-81
2024/01/15 03:28:46;;;;;;;16.20;6.47;;;;;;;;;;4992908;28;20042;-81
2024/01/15 03:31:11;;;;;;;9.88;5.28;;;;;;;;;;4990497;28;20403;-83
2024/01/15 03:33:37;;;;;;;11.75;5.35;;;;;;;;;;4993400;28;20038;-83
2024/01/15 03:36:02;;;;;;;12.77;6.72;;;;;;;;;;4994777;28;20045;-82
2024/01/15 03:38:28;;;;;;;9.63;5.20;;;;;;;;;;4990206;28;20532;-82
2024/01/15 03:40:54;;;;;;;9.65;5.32;;;;;;;;;;4991207;28;20030;-81
2024/01/15 03:43:19;;;;;;;8.98;4.20;;;;;;;;;;4996836;28;20078;-81
2024/01/15 03:45:45;;;;;;;6.68;4.43;;;;;;;;;;4997434;28;20034;-81
2024/01/15 03:48:11;;;;;;;8.43;4.40;;;;;;;;;;4967966;28;20038;-82
2024/01/15 03:50:36;;;;;;;9.18;4.95;;;;;;;;;;4995466;28;20157;-83
2024/01/15 03:53:01;;;;;;;13.40;6.00;;;;;;;;;;4990305;28;20034;-80
2024/01/15 03:55:27;;;;;;;11.05;4.43;;;;;;;;;;4991821;28;20034;-82
2024/01/15 03:57:52;;;;;;;9.95;4.40;;;;;;;;;;4991583;28;20053;-81
2024/01/15 04:00:18;;;;;;;6.65;3.92;;;;;;;;;;4996147;28;20042;-82
2024/01/15 04:02:44;;;;;;;12.52;5.35;;;;;;;;;;4993659;28;20062;-82
2024/01/15 04:05:09;;;;;;;7.65;5.10;;;;;;;;;;4987760;28;20042;-82
2024/01/15 04:07:35;;;;;;;7.20;3.60;;;;;;;;;;4949809;28;20527;-82
2024/01/15 04:10:00;;;;;;;6.88;3.20;;;;;;;;;;4996225;28;20513;-80
2024/01/15 04:12:25;;;;;;;5.00;3.38;;;;;;;;;;4991902;28;20049;-83
2024/01/15 04:14:51;;;;;;;4.50;3.08;;;;;;;;;;4995781;28;20515;-79
2024/01/15 04:17:16;;;;;;;4.22;2.58;;;;;;;;;;4992976;28;20060;-82
2024/01/15 04:19:44;;;;;;;8.82;4.57;;;;;;;;;;4996301;28;20038;-83
2024/01/15 04:22:09;;;;;;;9.10;4.80;;;;;;;;;;4974284;28;20042;-82
2024/01/15 04:24:34;;;;;;;7.97;3.95;;;;;;;;;;4996511;28;20046;-81
2024/01/15 04:27:00;;;;;;;8.38;4.28;;;;;;;;;;4997034;28;20030;-83
2024/01/15 04:29:26;;;;;;;8.65;4.63;;;;;;;;;;4991881;28;20045;-81
2024/01/15 04:31:52;;;;;;;6.30;3.60;;;;;;;;;;4995759;28;20041;-81
2024/01/15 04:34:18;;;;;;;6.72;3.55;;;;;;;;;;4995408;28;20857;-82
2024/01/15 04:36:43;;;;;;;4.68;2.95;;;;;;;;;;4992550;28;20066;-80
2024/01/15 04:39:08;;;;;;;6.55;3.63;;;;;;;;;;4991450;28;20057;-82
2024/01/15 04:41:34;;;;;;;5.82;3.53;;;;;;;;;;4979362;28;20696;-82
2024/01/15 04:44:01;;;;;;;5.82;3.38;;;;;;;;;;4995563;28;20614;-80
2024/01/15 04:46:26;;;;;;;9.50;4.30;;;;;;;;;;4994433;28;20573;-80
2024/01/15 04:48:51;;;;;;;5.30;3.50;;;;;;;;;;4995924;28;20042;-82
2024/01/15 04:51:17;;;;;;;8.27;4.80;;;;;;;;;;4990963;28;20047;-82
2024/01/15 04:53:42;;;;;;;6.25;3.25;;;;;;;;;;4989052;28;20042;-82
2024/01/15 04:56:07;;;;;;;11.60;4.78;;;;;;;;;;4990199;28;20491;-82
2024/01/15 04:58:32;;;;;;;7.45;3.53;;;;;;;;;;4995320;28;20042;-82
2024/01/15 05:00:58;;;;;;;5.88;3.92;;;;;;;;;;4970181;28;20042;-80
2024/01/15 05:03:23;;;;;;;6.03;2.92;;;;;;;;;;4974356;28;20042;-82
2024/01/15 05:05:48;;;;;;;7.20;4.05;;;;;;;;;;4996052;28;20087;-82
2024/01/15 05:08:14;;;;;;;8.55;4.22;;;;;;;;;;4987825;28;20049;-83
2024/01/15 05:10:39;;;;;;;4.40;2.95;;;;;;;;;;4970136;28;20057;-82
2024/01/15 05:13:04;;;;;;;10.30;5.78;;;;;;;;;;4995299;28;20038;-81
2024/01/15 05:15:29;;;;;;;6.22;4.10;;;;;;;;;;4988314;28;20122;-82
2024/01/15 05:17:55;;;;;;;7.10;3.72;;;;;;;;;;4990632;28;20038;-80
2024/01/15 05:20:20;;;;;;;5.40;3.35;;;;;;;;;;4972702;28;20041;-82
2024/01/15 05:22:45;;;;;;;4.35;3.05;;;;;;;;;;4989399;28;20035;-82
2024/01/15 05:25:11;;;;;;;6.55;2.78;;;;;;;;;;4994115;28;20070;-80
2024/01/15 05:27:36;;;;;;;5.80;3.08;;;;;;;;;;4974013;28;20057;-83
2024/01/15 05:30:02;;;;;;;5.32;3.47;;;;;;;;;;4988650;28;20085;-83
2024/01/15 05:32:28;;;;;;;5.38;2.50;;;;;;;;;;4989171;28;20125;-82
2024/01/15 05:34:53;;;;;;;7.20;3.20;;;;;;;;;;4973553;28;20066;-80
2024/01/15 05:37:18;;;;;;;5.45;3.22;;;;;;;;;;4990750;28;20099;-79
2024/01/15 05:39:44;;;;;;;3.72;2.55;;;;;;;;;;4994181;28;20038;-80
2024/01/15 05:42:09;;;;;;;6.47;3.53;;;;;;;;;;4981268;28;20415;-79
2024/01/15 05:44:34;;;;;;;4.03;2.75;;;;;;;;;;4996103;28;20034;-83
2024/01/15 05:47:00;;;;;;;7.15;2.83;;;;;;;;;;4984985;28;20034;-80
2024/01/15 05:49:25;;;;;;;3.30;2.67;;;;;;;;;;4998892;28;20042;-80
2024/01/15 05:51:51;;;;;;;6.20;3.78;;;;;;;;;;4998828;28;20014;-82
2024/01/15 05:54:18;;;;;;;5.05;3.40;;;;;;;;;;4997377;28;20062;-80
2024/01/15 05:56:43;;;;;;;5.95;3.33;;;;;;;;;;4998460;28;20038;-81
2024/01/15 05:59:08;;;;;;;6.57;3.47;;;;;;;;;;5002156;28;20034;-82
2024/01/15 06:01:34;;;;;;;4.65;2.95;;;;;;;;;;4993727;28;20488;-81
2024/01/15 06:03:59;;;;;;;5.75;3.17;;;;;;;;;;4977297;28;20046;-82
2024/01/15 06:06:24;;;;;;;4.72;2.95;;;;;;;;;;4970470;28;20055;-84
2024/01/15 06:08:49;;;;;;;7.53;2.70;;;;;;;;;;4980442;28;20033;-81
2024/01/15 06:11:15;;;;;;;4.30;2.75;;;;;;;;;;4993181;28;20053;-80
2024/01/15 06:13:40;;;;;;;5.80;3.60;;;;;;;;;;4973457;28;20033;-83
2024/01/15 06:16:14;;;;;;;6.15;3.60;;;;;;;;;;4992853;28;20045;-81
2024/01/15 06:18:39;;;;;;;;;;;;;;;;;;4966848;28;20609;-80
2024/01/15 06:21:04;;;;;;;6.00;4.05;;;;;;;;;;4994113;28;19914;-82
2024/01/15 06:23:30;;;;;;;4.78;2.95;;;;;;;;;;4988961;28;20057;-83
2024/01/15 06:25:55;;;;;;;5.45;3.47;;;;;;;;;;5001827;28;20061;-81
2024/01/15 06:28:20;;;;;;;3.83;2.55;;;;;;;;;;4997856;28;20030;-83
2024/01/15 06:30:46;;;;;;;6.15;3.63;;;;;;;;;;4978336;28;20422;-81
2024/01/15 06:33:11;;;;;;;7.13;4.38;;;;;;;;;;4990617;28;20031;-82
2024/01/15 06:35:36;;;;;;;9.80;3.20;;;;;;;;;;4993852;28;20034;-81
2024/01/15 06:38:02;;;;;;;5.28;3.05;;;;;;;;;;4991298;28;20102;-83
2024/01/15 06:40:27;;;;;;;6.85;3.03;;;;;;;;;;4977121;28;20038;-80
2024/01/15 06:42:52;;;;;;;3.97;2.88;;;;;;;;;;4994512;28;20038;-84
2024/01/15 06:45:18;;;;;;;4.07;3.22;;;;;;;;;;4994964;28;20046;-83
2024/01/15 06:47:43;;;;;;;4.97;3.13;;;;;;;;;;4988945;28;20092;-82
2024/01/15 06:50:08;;;;;;;4.72;2.88;;;;;;;;;;4955002;28;20034;-81
2024/01/15 06:52:34;;;;;;;6.13;3.30;;;;;;;;;;4993584;28;20046;-82
2024/01/15 06:54:59;;;;;;;8.32;3.10;;;;;;;;;;4977459;28;20093;-82
2024/01/15 06:57:24;;;;;;;9.88;3.83;;;;;;;;;;4973862;28;20038;-83
2024/01/15 06:59:50;;;;;;;5.30;3.00;;;;;;;;;;4966876;28;20038;-80
2024/01/15 07:02:15;;;;;;;4.95;2.97;;;;;;;;;;4968032;28;20047;-82
2024/01/15 07:04:41;;;;;;;7.03;3.67;;;;;;;;;;4985678;28;20503;-82
2024/01/15 07:07:06;;;;;;;3.70;2.63;;;;;;;;;;4982788;28;20103;-83
2024/01/15 07:09:31;;;;;;;4.32;3.08;;;;;;;;;;4986372;28;20088;-81
2024/01/15 07:11:58;;;;;;;5.40;3.42;;;;;;;;;;4989430;28;20549;-83
2024/01/15 07:14:23;;;;;;;4.88;2.95;;;;;;;;;;4986315;28;20098;-83
2024/01/15 07:16:48;;;;;;;5.13;3.33;;;;;;;;;;4994707;28;20107;-82
2024/01/15 07:19:13;;;;;;;4.95;3.25;;;;;;;;;;4974041;28;20145;-82
2024/01/15 07:21:40;;;;;;;4.03;3.08;;;;;;;;;;4992023;28;20500;-82
2024/01/15 07:24:05;;;;;;;6.13;3.10;;;;;;;;;;4978338;28;20035;-83
2024/01/15 07:26:31;;;;;;;6.75;3.78;;;;;;;;;;4959586;28;20061;-80
2024/01/15 07:28:56;;;;;;;5.18;2.85;;;;;;;;;;4975650;28;20339;-81
2024/01/15 07:31:22;;;;;;;8.45;3.78;;;;;;;;;;4964244;28;20094;-83
2024/01/15 07:33:47;;;;;;;5.18;3.60;;;;;;;;;;4984943;28;20039;-80
2024/01/15 07:36:12;;;;;;;9.15;4.13;;;;;;;;;;4971585;28;20047;-81
2024/01/15 07:38:37;;;;;;;8.02;3.97;;;;;;;;;;4977939;28;20535;-82
2024/01/15 07:41:03;;;;;;;4.60;2.83;;;;;;;;;;4961865;28;20105;-81
2024/01/15 07:43:29;;;;;;;6.50;3.65;;;;;;;;;;4983435;28;20038;-82
2024/01/15 07:45:54;;;;;;;5.88;3.25;;;;;;;;;;4989103;28;20034;-81
2024/01/15 07:48:20;;;;;;;7.18;3.58;;;;;;;;;;4986435;28;20042;-83
2024/01/15 07:50:45;;;;;;;6.13;3.70;;;;;;;;;;4942684;28;20042;-81
2024/01/15 07:53:11;;;;;;;5.15;2.90;;;;;;;;;;4958117;28;20042;-82
2024/01/15 07:55:36;;;;;;;3.53;2.22;;;;;;;;;;4987513;28;20038;-82
2024/01/15 07:58:01;;;;;;;7.95;4.35;;;;;;;;;;4993231;28;20482;-81
2024/01/15 08:00:27;;;;;;;5.38;3.28;;;;;;;;;;4972199;28;20044;-80
2024/01/15 08:02:53;;;;;;;6.88;3.45;;;;;;;;;;4971485;28;20380;-82
2024/01/15 08:05:18;;;;;;;3.15;2.63;;;;;;;;;;4982180;28;20034;-82
2024/01/15 08:07:43;;;;;;;7.15;3.63;;;;;;;;;;4984475;28;20054;-80
2024/01/15 08:10:09;;;;;;;3.50;3.05;;;;;;;;;;4984519;28;20181;-80
2024/01/15 08:12:35;;;;;;;5.97;3.58;;;;;;;;;;4981075;28;20035;-80
2024/01/15 08:15:00;;;;;;;8.13;3.95;;;;;;;;;;4981723;28;20061;-81
2024/01/15 08:17:28;;;;;;;5.32;3.50;;;;;;;;;;4967875;28;20451;-83
2024/01/15 08:19:54;;;;;;;4.50;3.05;;;;;;;;;;4981681;28;20154;-83
2024/01/15 08:22:20;;;;;;;5.93;3.67;;;;;;;;;;4959740;28;20086;-83
2024/01/15 08:24:45;;;;;;;10.63;4.38;;;;;;;;;;4978306;28;20057;-81
2024/01/15 08:27:11;;;;;;;5.82;3.25;;;;;;;;;;4984959;28;20117;-80
2024/01/15 08:29:36;;;;;;;5.78;3.72;;;;;;;;;;4985182;28;20034;-82
2024/01/15 08:32:01;;;;;;;7.25;3.28;;;;;;;;;;4981665;28;20049;-82
2024/01/15 08:34:27;;;;;;;6.00;3.22;;;;;;;;;;4968789;28;20054;-80
2024/01/15 08:36:52;;;;;;;8.07;3.42;;;;;;;;;;4964459;28;20043;-82
2024/01/15 08:39:19;;;;;;;4.15;3.05;;;;;;;;;;4980098;28;20034;-79
2024/01/15 08:41:44;;;;;;;7.07;4.30;;;;;;;;;;4992889;28;20031;-82
2024/01/15 08:44:10;;;;;;;5.32;3.20;;;;;;;;;;4970749;28;20069;-82
2024/01/15 08:46:35;;;;;;;3.35;2.30;;;;;;;;;;4978239;28;20043;-81
2024/01/15 08:49:00;;;;;;;8.18;4.22;;;;;;;;;;4991974;28;20266;-81
2024/01/15 08:51:26;;;;;;;3.83;2.17;;;;;;;;;;4989809;28;20034;-82
2024/01/15 08:53:51;;;;;;;6.43;2.70;;;;;;;;;;4982321;28;20038;-81
2024/01/15 08:56:17;;;;;;;4.40;2.70;;;;;;;;;;4980897;28;20170;-82
2024/01/15 08:58:42;;;;;;;8.30;3.30;;;;;;;;;;4983287;28;20039;-80
2024/01/15 09:01:07;;;;;;;9.55;4.13;;;;;;;;;;4984162;28;20042;-82
2024/01/15 09:03:33;;;;;;;5.90;3.28;;;;;;;;;;4979397;28;20071;-82
2024/01/15 09:05:59;;;;;;;6.07;3.40;;;;;;;;;;4994141;28;20034;-82
2024/01/15 09:08:24;;;;;;;10.55;3.22;;;;;;;;;;4984059;28;20047;-80
2024/01/15 09:10:50;;;;;;;5.25;2.75;;;;;;;;;;4979655;28;20046;-82
2024/01/15 09:13:16;;;;;;;5.13;3.05;;;;;;;;;;4974682;28;20127;-81
2024/01/15 09:15:42;;;;;;;8.32;3.17;;;;;;;;;;4978033;28;20077;-81
2024/01/15 09:18:08;;;;;;;3.97;2.28;;;;;;;;;;4979774;28;20050;-81
2024/01/15 09:20:33;;;;;;;8.05;3.55;;;;;;;;;;4976906;28;20043;-81
2024/01/15 09:22:58;;;;;;;6.05;3.70;;;;;;;;;;4961982;28;20520;-82
2024/01/15 09:25:23;;;;;;;4.45;2.97;;;;;;;;;;4981274;28;20042;-83
2024/01/15 09:27:49;;;;;;;10.50;3.88;;;;;;;;;;4965159;28;20042;-81
2024/01/15 09:30:15;;;;;;;5.78;3.30;;;;;;;;;;4963306;28;20094;-81
2024/01/15 09:32:40;;;;;;;7.60;4.80;;;;;;;;;;4969686;28;20389;-81
2024/01/15 09:35:06;;;;;;;10.07;4.30;;;;;;;;;;4989601;28;20030;-81
2024/01/15 09:37:31;;;;;;;11.02;4.50;;;;;;;;;;4973955;28;20118;-82
2024/01/15 09:39:56;;;;;;;5.65;3.00;;;;;;;;;;4962864;28;20053;-81
2024/01/15 09:42:24;;;;;;;3.53;2.35;;;;;;;;;;4978054;28;20034;-82
2024/01/15 09:44:50;;;;;;;6.85;3.45;;;;;;;;;;4981771;28;20680;-81
2024/01/15 09:47:17;;;;;;;7.18;4.13;;;;;;;;;;4976168;28;20039;-80
2024/01/15 09:49:43;;;;;;;5.95;3.42;;;;;;;;;;4981897;28;20117;-82
2024/01/15 09:52:10;;;;;;;11.48;5.20;;;;;;;;;;4971193;28;20116;-80
2024/01/15 09:54:36;;;;;;;6.20;3.45;;;;;;;;;;4987547;28;20034;-80
2024/01/15 09:57:02;;;;;;;5.95;3.55;;;;;;;;;;4989300;28;20044;-81
2024/01/15 09:59:28;;;;;;;7.70;3.20;;;;;;;;;;4978522;28;20146;-81
2024/01/15 10:01:54;;;;;;;4.40;3.28;;;;;;;;;;4976139;28;20513;-78
2024/01/15 10:04:19;;;;;;;5.57;3.13;;;;;;;;;;4981634;28;20512;-81
2024/01/15 10:06:45;;;;;;;5.63;2.80;;;;;;;;;;4986367;28;20035;-81
2024/01/15 10:09:14;;;;;;;7.88;2.65;;;;;;;;;;4982917;28;20045;-82
2024/01/15 10:11:41;;;;;;;5.70;2.42;;;;;;;;;;4979833;28;20035;-82
2024/01/15 10:14:06;;;;;;;4.45;3.33;;;;;;;;;;4979168;28;20087;-82
2024/01/15 10:16:32;;;;;;;6.40;3.40;;;;;;;;;;4981722;28;20046;-80
2024/01/15 10:18:57;;;;;;;5.88;3.25;;;;;;;;;;4977820;28;20047;-80
2024/01/15 10:21:23;;;;;;;6.32;3.08;;;;;;;;;;4978156;28;20443;-82
2024/01/15 10:23:49;;;;;;;4.70;3.20;;;;;;;;;;4964090;28;20041;-81
2024/01/15 10:26:14;;;;;;;7.85;4.40;;;;;;;;;;4970558;28;20130;-81
2024/01/15 10:28:40;;;;;;;3.63;2.45;;;;;;;;;;4982137;28;20477;-80
2024/01/15 10:31:06;;;;;;;2.92;2.47;;;;;;;;;;4992687;28;20351;-82
2024/01/15 10:33:31;;;;;;;4.63;3.00;;;;;;;;;;4974560;28;20049;-80
2024/01/15 10:35:58;;;;;;;5.85;3.17;;;;;;;;;;4984270;28;20447;-81
2024/01/15 10:38:24;;;;;;;5.80;3.20;;;;;;;;;;4973904;28;20058;-83
2024/01/15 10:40:54;;;;;;;4.88;2.85;;;;;;;;;;4956230;28;20061;-81
2024/01/15 10:43:19;;;;;;;4.30;2.55;;;;;;;;;;4981839;28;20046;-82
2024/01/15 10:45:49;;;;;;;2.97;2.25;;;;;;;;;;4991028;28;20062;-80
2024/01/15 10:48:16;;;;;;;2.40;2.20;;;;;;;;;;4990500;28;20062;-81
2024/01/15 10:50:41;;;;;;;4.70;2.00;;;;;;;;;;4993618;28;20046;-83
2024/01/15 10:53:08;;;;;;;3.17;2.20;;;;;;;;;;4999925;28;20034;-81
2024/01/15 10:55:35;;;;;;;5.68;2.63;;;;;;;;;;4968228;28;20050;-78
2024/01/15 10:58:00;;;;;;;4.40;2.60;;;;;;;;;;4990956;28;20557;-81
2024/01/15 11:00:26;;;;;;;6.95;2.65;;;;;;;;;;4986307;28;20069;-83
2024/01/15 11:02:55;;;;;;;4.95;2.50;;;;;;;;;;4996428;28;20034;-82
2024/01/15 11:05:22;;;;;;;4.32;2.42;;;;;;;;;;4977529;28;20423;-83
2024/01/15 11:07:48;;;;;;;4.60;2.55;;;;;;;;;;4993426;28;20051;-80
2024/01/15 11:10:40;;;;;;;3.20;1.95;;;;;;;;;;4987160;28;20050;-80
2024/01/15 11:13:08;;;;;;;5.05;2.38;;;;;;;;;;4979670;28;20042;-82
2024/01/15 11:15:54;;;;;;;4.20;2.53;;;;;;;;;;4992718;28;20036;-81
2024/01/15 11:18:22;;;;;;;3.13;2.13;;;;;;;;;;4993932;28;20046;-81
2024/01/15 11:21:18;;;;;;;4.93;2.47;;;;;;;;;;4984407;28;20058;-81
2024/01/15 11:23:48;;;;;;;5.18;2.22;;;;;;;;;;4978241;28;20119;-82
2024/01/15 11:26:38;;;;;;;2.10;1.80;;;;;;;;;;4992168;28;20050;-81
2024/01/15 11:29:08;;;;;;;3.70;2.00;;;;;;;;;;4962620;28;20041;-81
2024/01/15 11:31:39;;;;;;;4.68;2.53;;;;;;;;;;4991085;28;20130;-81
2024/01/15 11:34:08;;;;;;;4.88;2.70;;;;;;;;;;4994782;28;20092;-83
2024/01/15 11:36:46;;;;;;;3.10;2.80;;;;;;;;;;4987136;28;20112;-82
2024/01/15 11:39:26;;;;;;;4.40;2.90;;;;;;;;;;4989567;28;20030;-80
2024/01/15 11:41:52;;;;;;;3.58;2.33;;;;;;;;;;4994575;28;20049;-83
2024/01/15 11:44:17;;;;;;;3.75;2.10;;;;;;;;;;4986303;28;20035;-81
2024/01/15 11:47:00;;;;;;;5.05;2.10;;;;;;;;;;4971094;28;20027;-82
2024/01/15 11:49:47;;;;;;;4.40;2.45;;;;;;;;;;4972810;28;20073;-82
2024/01/15 11:52:17;;;;;;;3.75;2.30;;;;;;;;;;4987811;28;20053;-80
2024/01/15 11:54:51;;;;;;;4.63;2.17;;;;;;;;;;4987478;28;20049;-81
2024/01/15 11:57:19;;;;;;;;;;;;;;;;;;4992087;28;20037;-81
2024/01/15 11:59:44;;;;;;;2.85;2.17;;;;;;;;;;4974268;28;19967;-82
2024/01/15 12:02:12;;;;;;;3.55;2.63;;;;;;;;;;4983818;28;20123;-83
2024/01/15 12:04:39;;;;;;;4.15;2.33;;;;;;;;;;4991170;28;20043;-81
2024/01/15 12:07:04;;;;;;;3.35;2.03;;;;;;;;;;4991036;28;20433;-82
2024/01/15 12:09:29;;;;;;;2.75;1.90;;;;;;;;;;4985105;28;20050;-83
2024/01/15 12:12:05;;;;;;;3.30;2.33;;;;;;;;;;4985566;28;20089;-83
2024/01/15 12:14:31;;;;;;;3.13;2.30;;;;;;;;;;4993102;28;20038;-83
2024/01/15 12:16:58;;;;;;;5.38;2.72;;;;;;;;;;4992283;28;20053;-80
2024/01/15 12:19:23;;;;;;;3.35;2.10;;;;;;;;;;4993026;28;20125;-83
2024/01/15 12:21:50;;;;;;;4.35;2.70;;;;;;;;;;4988440;28;20069;-81
2024/01/15 12:24:17;;;;;;;9.82;2.30;;;;;;;;;;4979559;28;20044;-82
2024/01/15 12:26:42;;;;;;;4.63;1.83;;;;;;;;;;4973107;28;20085;-81
2024/01/15 12:29:08;;;;;;;3.13;2.17;;;;;;;;;;4999870;28;20038;-80
2024/01/15 12:31:34;;;;;;;2.15;1.90;;;;;;;;;;4964929;28;20042;-82
2024/01/15 12:34:01;;;;;;;2.60;2.00;;;;;;;;;;4986858;28;20503;-81
2024/01/15 12:36:27;;;;;;;2.42;1.50;;;;;;;;;;4982216;28;20045;-82
2024/01/15 12:38:52;;;;;;;2.70;2.00;;;;;;;;;;4964487;28;20643;-83
2024/01/15 12:41:17;;;;;;;3.50;2.20;;;;;;;;;;4978987;28;20109;-81
2024/01/15 12:43:43;;;;;;;9.10;2.25;;;;;;;;;;4985499;28;20073;-82
2024/01/15 12:46:08;;;;;;;4.05;2.15;;;;;;;;;;4991798;28;20042;-82
2024/01/15 12:48:34;;;;;;;3.10;1.80;;;;;;;;;;4983619;28;20491;-81
2024/01/15 12:51:00;;;;;;;5.82;2.40;;;;;;;;;;4973511;28;20277;-81
2024/01/15 12:53:26;;;;;;;2.58;2.00;;;;;;;;;;4979445;28;20034;-83
2024/01/15 12:55:51;;;;;;;2.22;2.00;;;;;;;;;;4979336;28;20065;-83
2024/01/15 12:58:17;;;;;;;2.40;1.83;;;;;;;;;;4988356;28;20053;-83
2024/01/15 13:00:42;;;;;;;1.83;1.65;;;;;;;;;;4965717;28;20038;-83
2024/01/15 13:03:08;;;;;;;2.03;1.70;;;;;;;;;;4963422;28;20031;-80
2024/01/15 13:05:34;;;;;;;1.90;1.70;;;;;;;;;;4980798;28;20038;-83
2024/01/15 13:07:59;;;;;;;2.10;1.55;;;;;;;;;;4978731;28;20051;-82
2024/01/15 13:10:24;;;;;;;1.88;1.67;;;;;;;;;;4972616;28;20138;-82
2024/01/15 13:12:50;;;;;;;1.88;1.35;;;;;;;;;;4973062;28;20566;-81
2024/01/15 13:15:15;;;;;;;2.05;1.67;;;;;;;;;;4982749;28;20121;-81
2024/01/15 13:17:41;;;;;;;2.55;1.45;;;;;;;;;;4980673;28;20041;-81
2024/01/15 13:20:08;;;;;;;1.52;1.42;;;;;;;;;;4979754;28;20061;-79
2024/01/15 13:22:33;;;;;;;1.55;1.23;;;;;;;;;;4978006;28;20078;-81
2024/01/15 13:24:59;;;;;;;1.35;1.10;;;;;;;;;;4983259;28;20051;-79
2024/01/15 13:27:24;;;;;;;2.15;1.45;;;;;;;;;;4990148;28;20454;-81
2024/01/15 13:29:49;;;;;;;1.80;1.38;;;;;;;;;;4970898;28;20521;-81
2024/01/15 13:32:20;;;;;;;1.83;1.38;;;;;;;;;;4961902;28;20045;-80
2024/01/15 13:34:46;;;;;;;6.80;1.65;;;;;;;;;;4981824;28;20046;-82
2024/01/15 13:37:11;;;;;;;1.63;1.35;;;;;;;;;;4981933;28;20035;-81
2024/01/15 13:39:37;;;;;;;1.38;1.27;;;;;;;;;;4980140;28;20569;-81
2024/01/15 13:42:02;;;;;;;4.97;1.30;;;;;;;;;;4977244;28;20027;-82
2024/01/15 13:44:28;;;;;;;1.40;1.30;;;;;;;;;;4977055;28;20039;-82
2024/01/15 13:46:53;;;;;;;4.60;1.20;;;;;;;;;;4991592;28;20054;-82
2024/01/15 13:49:18;;;;;;;1.40;1.30;;;;;;;;;;4988851;28;20031;-81
2024/01/15 13:51:44;;;;;;;1.35;1.25;;;;;;;;;;4966083;28;20122;-80
2024/01/15 13:54:09;;;;;;;1.75;1.60;;;;;;;;;;4952071;28;20041;-82
2024/01/15 13:56:35;;;;;;;1.58;1.33;;;;;;;;;;4965730;28;20058;-81
2024/01/15 13:59:00;;;;;;;1.63;1.52;;;;;;;;;;4979539;28;20700;-82
2024/01/15 14:01:27;;;;;;;1.30;1.30;;;;;;;;;;4964296;28;20073;-81
2024/01/15 14:03:54;;;;;;;1.30;1.20;;;;;;;;;;4981294;28;20048;-80
2024/01/15 14:06:19;;;;;;;1.52;1.42;;;;;;;;;;4963941;28;20589;-80
2024/01/15 14:08:45;;;;;;;1.85;1.30;;;;;;;;;;4974177;28;20042;-80
2024/01/15 14:11:10;;;;;;;1.42;1.33;;;;;;;;;;4952608;28;20073;-83
2024/01/15 14:13:35;;;;;;;1.20;1.13;;;;;;;;;;4971405;28;20105;-81
2024/01/15 14:16:01;;;;;;;2.08;1.60;;;;;;;;;;4972632;28;20440;-82
2024/01/15 14:18:27;;;;;;;1.85;1.48;;;;;;;;;;4986093;28;20049;-83
2024/01/15 14:20:53;;;;;;;1.90;1.55;;;;;;;;;;4992945;28;20065;-83
2024/01/15 14:23:19;;;;;;;1.88;1.77;;;;;;;;;;4953311;28;20043;-83
2024/01/15 14:25:44;;;;;;;1.45;1.35;;;;;;;;;;4961152;28;20056;-81
2024/01/15 14:28:10;;;;;;;1.65;1.55;;;;;;;;;;4965214;28;20104;-83
2024/01/15 14:30:35;;;;;;;1.73;1.63;;;;;;;;;;4978213;28;20042;-81
2024/01/15 14:33:01;;;;;;;1.85;1.65;;;;;;;;;;4965122;28;20029;-79
2024/01/15 14:35:26;;;;;;;2.28;1.95;;;;;;;;;;4968424;28;20041;-83